sensor_id;sensor_type;location;lat;lon;timestamp;pressure;altitude;pressure_sealevel;temperature;humidity
30421;BME280;17218;54.070;10.012;2024-03-06T00:01:58;101951.75;;;5.18;100.00
30421;BME280;17218;54.070;10.012;2024-03-06T00:04:25;101960.44;;;5.21;100.00
30421;BME280;17218;54.070;10.012;2024-03-06T00:06:52;101957.84;;;5.21;100.00
30421;BME280;17218;54.070;10.012;2024-03-06T00:09:20;101956.13;;;5.22;100.00
30421;BME280;17218;54.070;10.012;2024-03-06T00:11:47;101969.81;;;5.21;100.00
30421;BME280;17218;54.070;10.012;2024-03-06T00:14:16;101963.00;;;5.21;100.00
30421;BME280;17218;54.070;10.012;2024-03-06T00:16:42;101971.56;;;5.22;100.00
30421;BME280;17218;54.070;10.012;2024-03-06T00:19:10;101967.41;;;5.25;100.00
30421;BME280;17218;54.070;10.012;2024-03-06T00:21:37;101967.44;;;5.27;100.00
30421;BME280;17218;54.070;10.012;2024-03-06T00:24:04;101971.78;;;5.28;100.00
30421;BME280;17218;54.070;10.012;2024-03-06T00:26:30;101979.50;;;5.28;100.00
30421;BME280;17218;54.070;10.012;2024-03-06T00:28:57;101976.97;;;5.30;100.00
30421;BME280;17218;54.070;10.012;2024-03-06T00:31:23;101972.53;;;5.25;100.00
30421;BME280;17218;54.070;10.012;2024-03-06T00:33:50;101982.94;;;5.29;100.00
30421;BME280;17218;54.070;10.012;2024-03-06T00:36:18;101979.50;;;5.28;100.00
30421;BME280;17218;54.070;10.012;2024-03-06T00:38:44;101975.06;;;5.24;100.00
30421;BME280;17218;54.070;10.012;2024-03-06T00:41:10;101977.84;;;5.30;100.00
30421;BME280;17218;54.070;10.012;2024-03-06T00:43:37;101977.91;;;5.32;100.00
30421;BME280;17218;54.070;10.012;2024-03-06T00:46:03;101980.50;;;5.33;100.00
30421;BME280;17218;54.070;10.012;2024-03-06T00:48:30;101980.25;;;5.25;100.00
30421;BME280;17218;54.070;10.012;2024-03-06T00:50:56;101976.91;;;5.28;100.00
30421;BME280;17218;54.070;10.012;2024-03-06T00:53:24;101971.13;;;5.34;100.00
30421;BME280;17218;54.070;10.012;2024-03-06T00:55:51;101972.00;;;5.34;100.00
30421;BME280;17218;54.070;10.012;2024-03-06T00:58:17;101983.97;;;5.34;100.00
30421;BME280;17218;54.070;10.012;2024-03-06T01:00:44;101987.41;;;5.34;100.00
30421;BME280;17218;54.070;10.012;2024-03-06T01:03:10;101988.28;;;5.35;100.00
30421;BME280;17218;54.070;10.012;2024-03-06T01:05:37;101988.31;;;5.36;100.00
30421;BME280;17218;54.070;10.012;2024-03-06T01:08:04;101980.78;;;5.41;100.00
30421;BME280;17218;54.070;10.012;2024-03-06T01:10:32;101982.47;;;5.41;100.00
30421;BME280;17218;54.070;10.012;2024-03-06T01:12:58;101975.66;;;5.41;100.00
30421;BME280;17218;54.070;10.012;2024-03-06T01:15:25;101986.72;;;5.40;100.00
30421;BME280;17218;54.070;10.012;2024-03-06T01:17:51;101996.16;;;5.40;100.00
30421;BME280;17218;54.070;10.012;2024-03-06T01:20:17;101987.47;;;5.36;100.00
30421;BME280;17218;54.070;10.012;2024-03-06T01:22:45;101995.13;;;5.34;100.00
30421;BME280;17218;54.070;10.012;2024-03-06T01:25:12;102000.09;;;5.30;100.00
30421;BME280;17218;54.070;10.012;2024-03-06T01:27:39;101997.69;;;5.34;100.00
30421;BME280;17218;54.070;10.012;2024-03-06T01:30:07;102007.91;;;5.33;100.00
30421;BME280;17218;54.070;10.012;2024-03-06T01:32:33;101993.28;;;5.30;100.00
30421;BME280;17218;54.070;10.012;2024-03-06T01:35:00;102016.44;;;5.32;100.00
30421;BME280;17218;54.070;10.012;2024-03-06T01:37:27;102016.34;;;5.29;100.00
30421;BME280;17218;54.070;10.012;2024-03-06T01:39:53;102012.91;;;5.28;100.00
30421;BME280;17218;54.070;10.012;2024-03-06T01:42:20;102011.88;;;5.23;100.00
30421;BME280;17218;54.070;10.012;2024-03-06T01:44:48;102016.06;;;5.21;100.00
30421;BME280;17218;54.070;10.012;2024-03-06T01:47:14;102015.28;;;5.23;100.00
30421;BME280;17218;54.070;10.012;2024-03-06T01:49:41;102021.19;;;5.21;100.00
30421;BME280;17218;54.070;10.012;2024-03-06T01:52:09;102015.22;;;5.22;100.00
30421;BME280;17218;54.070;10.012;2024-03-06T01:54:38;102011.69;;;5.18;100.00
30421;BME280;17218;54.070;10.012;2024-03-06T01:57:06;102017.84;;;5.23;100.00
30421;BME280;17218;54.070;10.012;2024-03-06T01:59:33;102016.25;;;5.27;100.00
30421;BME280;17218;54.070;10.012;2024-03-06T02:02:01;102011.31;;;5.32;100.00
30421;BME280;17218;54.070;10.012;2024-03-06T02:04:29;102021.09;;;5.18;100.00
30421;BME280;17218;54.070;10.012;2024-03-06T02:06:56;102011.56;;;4.91;100.00
30421;BME280;17218;54.070;10.012;2024-03-06T02:09:23;102013.66;;;5.01;100.00
30421;BME280;17218;54.070;10.012;2024-03-06T02:11:49;102029.13;;;5.03;100.00
30421;BME280;17218;54.070;10.012;2024-03-06T02:14:16;102017.47;;;5.12;100.00
30421;BME280;17218;54.070;10.012;2024-03-06T02:16:42;102005.47;;;5.11;100.00
30421;BME280;17218;54.070;10.012;2024-03-06T02:19:10;102014.38;;;5.21;100.00
30421;BME280;17218;54.070;10.012;2024-03-06T02:21:37;102023.72;;;5.19;100.00
30421;BME280;17218;54.070;10.012;2024-03-06T02:24:04;102019.38;;;5.18;100.00
30421;BME280;17218;54.070;10.012;2024-03-06T02:26:31;102014.09;;;5.13;100.00
30421;BME280;17218;54.070;10.012;2024-03-06T02:28:57;102025.50;;;5.22;100.00
30421;BME280;17218;54.070;10.012;2024-03-06T02:31:24;102033.34;;;5.25;100.00
30421;BME280;17218;54.070;10.012;2024-03-06T02:33:50;102027.41;;;5.28;100.00
30421;BME280;17218;54.070;10.012;2024-03-06T02:36:17;102035.31;;;5.32;100.00
30421;BME280;17218;54.070;10.012;2024-03-06T02:38:45;102020.88;;;5.36;100.00
30421;BME280;17218;54.070;10.012;2024-03-06T02:41:12;102025.97;;;5.34;100.00
30421;BME280;17218;54.070;10.012;2024-03-06T02:43:41;102028.41;;;5.31;100.00
30421;BME280;17218;54.070;10.012;2024-03-06T02:46:08;102024.16;;;5.32;100.00
30421;BME280;17218;54.070;10.012;2024-03-06T02:48:34;102026.53;;;5.27;100.00
30421;BME280;17218;54.070;10.012;2024-03-06T02:51:01;102024.81;;;5.26;100.00
30421;BME280;17218;54.070;10.012;2024-03-06T02:53:28;102030.69;;;5.23;100.00
30421;BME280;17218;54.070;10.012;2024-03-06T02:55:55;102034.25;;;5.27;100.00
30421;BME280;17218;54.070;10.012;2024-03-06T02:58:22;102043.63;;;5.25;100.00
30421;BME280;17218;54.070;10.012;2024-03-06T03:00:48;102039.38;;;5.27;100.00
30421;BME280;17218;54.070;10.012;2024-03-06T03:03:15;102036.78;;;5.25;100.00
30421;BME280;17218;54.070;10.012;2024-03-06T03:05:41;102045.47;;;5.29;100.00
30421;BME280;17218;54.070;10.012;2024-03-06T03:08:07;102045.41;;;5.28;100.00
30421;BME280;17218;54.070;10.012;2024-03-06T03:10:33;102035.09;;;5.26;100.00
30421;BME280;17218;54.070;10.012;2024-03-06T03:13:01;102042.78;;;5.26;100.00
30421;BME280;17218;54.070;10.012;2024-03-06T03:15:30;102044.44;;;5.24;100.00
30421;BME280;17218;54.070;10.012;2024-03-06T03:17:56;102044.28;;;5.19;100.00
30421;BME280;17218;54.070;10.012;2024-03-06T03:20:23;102045.97;;;5.19;100.00
30421;BME280;17218;54.070;10.012;2024-03-06T03:22:49;102036.66;;;5.22;100.00
30421;BME280;17218;54.070;10.012;2024-03-06T03:25:15;102041.81;;;5.22;100.00
30421;BME280;17218;54.070;10.012;2024-03-06T03:27:42;102044.47;;;5.25;100.00
30421;BME280;17218;54.070;10.012;2024-03-06T03:30:11;102035.19;;;5.29;100.00
30421;BME280;17218;54.070;10.012;2024-03-06T03:32:37;102047.09;;;5.27;100.00
30421;BME280;17218;54.070;10.012;2024-03-06T03:35:05;102053.16;;;5.29;100.00
30421;BME280;17218;54.070;10.012;2024-03-06T03:37:31;102049.75;;;5.29;100.00
30421;BME280;17218;54.070;10.012;2024-03-06T03:39:58;102056.66;;;5.31;100.00
30421;BME280;17218;54.070;10.012;2024-03-06T03:42:25;102053.13;;;5.28;100.00
30421;BME280;17218;54.070;10.012;2024-03-06T03:44:51;102058.16;;;5.24;100.00
30421;BME280;17218;54.070;10.012;2024-03-06T03:47:19;102055.53;;;5.23;100.00
30421;BME280;17218;54.070;10.012;2024-03-06T03:49:46;102058.16;;;5.24;100.00
30421;BME280;17218;54.070;10.012;2024-03-06T03:52:12;102058.16;;;5.24;100.00
30421;BME280;17218;54.070;10.012;2024-03-06T03:54:40;102061.44;;;5.20;100.00
30421;BME280;17218;54.070;10.012;2024-03-06T03:57:06;102054.69;;;5.24;100.00
30421;BME280;17218;54.070;10.012;2024-03-06T03:59:33;102054.59;;;5.21;100.00
30421;BME280;17218;54.070;10.012;2024-03-06T04:02:00;102070.81;;;5.20;100.00
30421;BME280;17218;54.070;10.012;2024-03-06T04:04:28;102062.25;;;5.19;100.00
30421;BME280;17218;54.070;10.012;2024-03-06T04:06:55;102063.00;;;5.17;100.00
30421;BME280;17218;54.070;10.012;2024-03-06T04:09:24;102069.09;;;5.19;100.00
30421;BME280;17218;54.070;10.012;2024-03-06T04:11:51;102069.03;;;5.17;100.00
30421;BME280;17218;54.070;10.012;2024-03-06T04:14:17;102079.19;;;5.14;100.00
30421;BME280;17218;54.070;10.012;2024-03-06T04:16:45;102066.47;;;5.17;100.00
30421;BME280;17218;54.070;10.012;2024-03-06T04:19:11;102077.53;;;5.16;100.00
30421;BME280;17218;54.070;10.012;2024-03-06T04:21:41;102062.13;;;5.16;100.00
30421;BME280;17218;54.070;10.012;2024-03-06T04:24:08;102079.34;;;5.19;100.00
30421;BME280;17218;54.070;10.012;2024-03-06T04:26:35;102090.47;;;5.18;100.00
30421;BME280;17218;54.070;10.012;2024-03-06T04:29:01;102076.56;;;5.12;100.00
30421;BME280;17218;54.070;10.012;2024-03-06T04:31:28;102076.44;;;5.09;100.00
30421;BME280;17218;54.070;10.012;2024-03-06T04:33:55;102077.28;;;5.08;100.00
30421;BME280;17218;54.070;10.012;2024-03-06T04:36:21;102082.94;;;4.99;100.00
30421;BME280;17218;54.070;10.012;2024-03-06T04:38:49;102081.19;;;4.98;100.00
30421;BME280;17218;54.070;10.012;2024-03-06T04:41:18;102078.66;;;5.00;100.00
30421;BME280;17218;54.070;10.012;2024-03-06T04:43:44;102084.50;;;4.96;100.00
30421;BME280;17218;54.070;10.012;2024-03-06T04:46:12;102088.19;;;5.03;100.00
30421;BME280;17218;54.070;10.012;2024-03-06T04:48:39;102088.06;;;4.99;100.00
30421;BME280;17218;54.070;10.012;2024-03-06T04:51:05;102087.22;;;4.99;100.00
30421;BME280;17218;54.070;10.012;2024-03-06T04:53:31;102095.75;;;4.99;100.00
30421;BME280;17218;54.070;10.012;2024-03-06T04:55:59;102082.72;;;4.93;100.00
30421;BME280;17218;54.070;10.012;2024-03-06T05:05:09;102098.13;;;4.93;100.00
30421;BME280;17218;54.070;10.012;2024-03-06T05:07:36;102099.06;;;4.95;100.00
30421;BME280;17218;54.070;10.012;2024-03-06T05:10:03;102096.66;;;5.00;100.00
30421;BME280;17218;54.070;10.012;2024-03-06T05:12:31;102105.97;;;4.98;100.00
30421;BME280;17218;54.070;10.012;2024-03-06T05:14:57;102109.19;;;4.92;100.00
30421;BME280;17218;54.070;10.012;2024-03-06T05:17:24;102109.97;;;4.89;100.00
30421;BME280;17218;54.070;10.012;2024-03-06T05:19:51;102109.97;;;4.89;100.00
30421;BME280;17218;54.070;10.012;2024-03-06T05:22:17;102105.69;;;4.90;100.00
30421;BME280;17218;54.070;10.012;2024-03-06T05:24:44;102111.75;;;4.92;100.00
30421;BME280;17218;54.070;10.012;2024-03-06T05:27:10;102113.53;;;4.93;100.00
30421;BME280;17218;54.070;10.012;2024-03-06T05:29:40;102120.34;;;4.93;100.00
30421;BME280;17218;54.070;10.012;2024-03-06T05:32:07;102113.63;;;4.96;100.00
30421;BME280;17218;54.070;10.012;2024-03-06T05:34:33;102125.53;;;4.94;100.00
30421;BME280;17218;54.070;10.012;2024-03-06T05:37:00;102129.25;;;5.01;100.00
30421;BME280;17218;54.070;10.012;2024-03-06T05:39:29;102130.09;;;5.01;100.00
30421;BME280;17218;54.070;10.012;2024-03-06T05:41:55;102139.50;;;5.01;100.00
30421;BME280;17218;54.070;10.012;2024-03-06T05:44:25;102143.13;;;5.06;100.00
30421;BME280;17218;54.070;10.012;2024-03-06T05:46:54;102145.81;;;5.09;100.00
30421;BME280;17218;54.070;10.012;2024-03-06T05:49:20;102148.47;;;5.12;100.00
30421;BME280;17218;54.070;10.012;2024-03-06T05:51:47;102155.13;;;5.07;100.00
30421;BME280;17218;54.070;10.012;2024-03-06T05:54:13;102153.47;;;5.08;100.00
30421;BME280;17218;54.070;10.012;2024-03-06T05:56:40;102153.50;;;5.09;100.00
30421;BME280;17218;54.070;10.012;2024-03-06T05:59:07;102168.03;;;5.09;100.00
30421;BME280;17218;54.070;10.012;2024-03-06T06:01:33;102157.81;;;5.10;100.00
30421;BME280;17218;54.070;10.012;2024-03-06T06:04:02;102165.41;;;5.07;100.00
30421;BME280;17218;54.070;10.012;2024-03-06T06:06:28;102165.47;;;5.09;100.00
30421;BME280;17218;54.070;10.012;2024-03-06T06:08:55;102173.22;;;5.10;100.00
30421;BME280;17218;54.070;10.012;2024-03-06T06:11:21;102170.66;;;5.10;100.00
30421;BME280;17218;54.070;10.012;2024-03-06T06:13:48;102169.13;;;5.14;100.00
30421;BME280;17218;54.070;10.012;2024-03-06T06:16:14;102173.44;;;5.15;100.00
30421;BME280;17218;54.070;10.012;2024-03-06T06:18:41;102175.34;;;5.21;100.00
30421;BME280;17218;54.070;10.012;2024-03-06T06:21:09;102183.81;;;5.18;100.00
30421;BME280;17218;54.070;10.012;2024-03-06T06:23:35;102188.00;;;5.16;100.00
30421;BME280;17218;54.070;10.012;2024-03-06T06:26:02;102186.38;;;5.18;100.00
30421;BME280;17218;54.070;10.012;2024-03-06T06:28:28;102188.16;;;5.19;100.00
30421;BME280;17218;54.070;10.012;2024-03-06T06:30:55;102193.28;;;5.19;100.00
30421;BME280;17218;54.070;10.012;2024-03-06T06:33:21;102202.00;;;5.23;100.00
30421;BME280;17218;54.070;10.012;2024-03-06T06:35:48;102202.78;;;5.22;100.00
30421;BME280;17218;54.070;10.012;2024-03-06T06:38:16;102202.94;;;5.25;100.00
30421;BME280;17218;54.070;10.012;2024-03-06T06:40:42;102207.19;;;5.24;100.00
30421;BME280;17218;54.070;10.012;2024-03-06T06:43:09;102225.13;;;5.23;100.00
30421;BME280;17218;54.070;10.012;2024-03-06T06:45:35;102222.53;;;5.23;100.00
30421;BME280;17218;54.070;10.012;2024-03-06T06:48:03;102222.66;;;5.26;100.00
30421;BME280;17218;54.070;10.012;2024-03-06T06:50:29;102224.69;;;5.35;100.00
30421;BME280;17218;54.070;10.012;2024-03-06T06:52:58;102230.03;;;5.40;100.00
30421;BME280;17218;54.070;10.012;2024-03-06T06:55:27;102233.44;;;5.40;100.00
30421;BME280;17218;54.070;10.012;2024-03-06T06:57:53;102228.31;;;5.40;100.00
30421;BME280;17218;54.070;10.012;2024-03-06T07:00:21;102247.28;;;5.44;100.00
30421;BME280;17218;54.070;10.012;2024-03-06T07:02:48;102243.72;;;5.40;100.00
30421;BME280;17218;54.070;10.012;2024-03-06T07:05:15;102242.09;;;5.42;100.00
30421;BME280;17218;54.070;10.012;2024-03-06T07:07:41;102242.16;;;5.44;100.00
30421;BME280;17218;54.070;10.012;2024-03-06T07:10:08;102244.81;;;5.45;100.00
30421;BME280;17218;54.070;10.012;2024-03-06T07:12:36;102243.34;;;5.52;100.00
30421;BME280;17218;54.070;10.012;2024-03-06T07:15:03;102250.28;;;5.55;100.00
30421;BME280;17218;54.070;10.012;2024-03-06T07:17:30;102252.84;;;5.55;100.00
30421;BME280;17218;54.070;10.012;2024-03-06T07:19:57;102258.00;;;5.55;100.00
30421;BME280;17218;54.070;10.012;2024-03-06T07:22:24;102263.13;;;5.55;100.00
30421;BME280;17218;54.070;10.012;2024-03-06T07:24:51;102265.91;;;5.59;100.00
30421;BME280;17218;54.070;10.012;2024-03-06T07:27:17;102270.09;;;5.57;100.00
30421;BME280;17218;54.070;10.012;2024-03-06T07:29:45;102269.28;;;5.58;100.00
30421;BME280;17218;54.070;10.012;2024-03-06T07:32:12;102262.72;;;5.44;100.00
30421;BME280;17218;54.070;10.012;2024-03-06T07:34:38;102273.34;;;5.53;100.00
30421;BME280;17218;54.070;10.012;2024-03-06T07:37:05;102288.16;;;5.59;100.00
30421;BME280;17218;54.070;10.012;2024-03-06T07:39:31;102277.28;;;5.66;100.00
30421;BME280;17218;54.070;10.012;2024-03-06T07:41:58;102285.03;;;5.68;100.00
30421;BME280;17218;54.070;10.012;2024-03-06T07:44:24;102285.47;;;5.56;100.00
30421;BME280;17218;54.070;10.012;2024-03-06T07:46:52;102289.88;;;5.37;100.00
30421;BME280;17218;54.070;10.012;2024-03-06T07:49:19;102290.53;;;5.31;100.00
30421;BME280;17218;54.070;10.012;2024-03-06T07:51:47;102292.47;;;5.37;100.00
30421;BME280;17218;54.070;10.012;2024-03-06T07:54:13;102296.38;;;5.50;100.00
30421;BME280;17218;54.070;10.012;2024-03-06T07:56:40;102292.50;;;5.60;100.00
30421;BME280;17218;54.070;10.012;2024-03-06T07:59:06;102287.75;;;5.71;100.00
30421;BME280;17218;54.070;10.012;2024-03-06T08:01:33;102300.72;;;5.74;100.00
30421;BME280;17218;54.070;10.012;2024-03-06T08:04:01;102298.03;;;5.71;100.00
30421;BME280;17218;54.070;10.012;2024-03-06T08:06:28;102301.00;;;5.59;100.00
30421;BME280;17218;54.070;10.012;2024-03-06T08:08:58;102308.13;;;5.66;100.00
30421;BME280;17218;54.070;10.012;2024-03-06T08:11:25;102308.88;;;5.87;100.00
30421;BME280;17218;54.070;10.012;2024-03-06T08:13:57;102309.09;;;5.91;100.00
30421;BME280;17218;54.070;10.012;2024-03-06T08:16:23;102303.00;;;5.89;100.00
30421;BME280;17218;54.070;10.012;2024-03-06T08:18:50;102313.84;;;6.05;100.00
30421;BME280;17218;54.070;10.012;2024-03-06T08:21:18;102314.94;;;6.10;100.00
30421;BME280;17218;54.070;10.012;2024-03-06T08:23:45;102317.13;;;5.78;100.00
30421;BME280;17218;54.070;10.012;2024-03-06T08:26:12;102318.91;;;5.79;100.00
30421;BME280;17218;54.070;10.012;2024-03-06T08:28:39;102309.88;;;5.90;100.00
30421;BME280;17218;54.070;10.012;2024-03-06T08:31:05;102315.16;;;6.16;100.00
30421;BME280;17218;54.070;10.012;2024-03-06T08:33:33;102319.16;;;6.32;100.00
30421;BME280;17218;54.070;10.012;2024-03-06T08:36:00;102324.16;;;6.28;100.00
30421;BME280;17218;54.070;10.012;2024-03-06T08:38:27;102323.53;;;6.11;100.00
30421;BME280;17218;54.070;10.012;2024-03-06T08:40:54;102327.63;;;6.05;100.00
30421;BME280;17218;54.070;10.012;2024-03-06T08:43:20;102330.19;;;6.28;100.00
30421;BME280;17218;54.070;10.012;2024-03-06T08:45:47;102334.53;;;6.31;100.00
30421;BME280;17218;54.070;10.012;2024-03-06T08:48:13;102336.38;;;6.34;100.00
30421;BME280;17218;54.070;10.012;2024-03-06T08:50:40;102341.78;;;6.41;100.00
30421;BME280;17218;54.070;10.012;2024-03-06T08:53:06;102346.63;;;6.09;100.00
30421;BME280;17218;54.070;10.012;2024-03-06T08:55:36;102348.97;;;6.03;100.00
30421;BME280;17218;54.070;10.012;2024-03-06T08:58:02;102351.53;;;6.03;100.00
30421;BME280;17218;54.070;10.012;2024-03-06T09:00:29;102354.34;;;5.86;100.00
30421;BME280;17218;54.070;10.012;2024-03-06T09:02:55;102352.44;;;5.37;100.00
30421;BME280;17218;54.070;10.012;2024-03-06T09:05:22;102363.66;;;4.97;100.00
30421;BME280;17218;54.070;10.012;2024-03-06T09:07:48;102353.38;;;5.18;100.00
30421;BME280;17218;54.070;10.012;2024-03-06T09:10:15;102360.66;;;5.29;100.00
30421;BME280;17218;54.070;10.012;2024-03-06T09:12:45;102372.75;;;5.53;100.00
30421;BME280;17218;54.070;10.012;2024-03-06T09:15:11;102372.84;;;5.77;100.00
30421;BME280;17218;54.070;10.012;2024-03-06T09:17:38;102368.59;;;6.01;100.00
30421;BME280;17218;54.070;10.012;2024-03-06T09:20:05;102371.03;;;6.19;100.00
30421;BME280;17218;54.070;10.012;2024-03-06T09:22:35;102370.56;;;6.31;100.00
30421;BME280;17218;54.070;10.012;2024-03-06T09:25:03;102379.13;;;6.30;100.00
30421;BME280;17218;54.070;10.012;2024-03-06T09:27:29;102371.88;;;5.96;100.00
30421;BME280;17218;54.070;10.012;2024-03-06T09:29:57;102375.00;;;5.45;100.00
30421;BME280;17218;54.070;10.012;2024-03-06T09:32:23;102382.25;;;5.12;100.00
30421;BME280;17218;54.070;10.012;2024-03-06T09:34:51;102387.00;;;5.03;100.00
30421;BME280;17218;54.070;10.012;2024-03-06T09:37:17;102384.72;;;5.09;100.00
30421;BME280;17218;54.070;10.012;2024-03-06T09:39:44;102396.72;;;5.10;100.00
30421;BME280;17218;54.070;10.012;2024-03-06T09:42:12;102384.09;;;5.15;100.00
30421;BME280;17218;54.070;10.012;2024-03-06T09:44:39;102391.63;;;5.32;100.00
30421;BME280;17218;54.070;10.012;2024-03-06T09:47:07;102395.38;;;5.40;100.00
30421;BME280;17218;54.070;10.012;2024-03-06T09:49:35;102397.38;;;5.47;100.00
30421;BME280;17218;54.070;10.012;2024-03-06T09:52:02;102397.69;;;5.77;100.00
30421;BME280;17218;54.070;10.012;2024-03-06T09:54:29;102396.00;;;6.00;100.00
30421;BME280;17218;54.070;10.012;2024-03-06T09:56:56;102395.91;;;5.97;100.00
30421;BME280;17218;54.070;10.012;2024-03-06T09:59:24;102390.22;;;6.29;100.00
30421;BME280;17218;54.070;10.012;2024-03-06T10:01:54;102398.97;;;6.57;100.00
30421;BME280;17218;54.070;10.012;2024-03-06T10:04:23;102400.47;;;6.75;100.00
30421;BME280;17218;54.070;10.012;2024-03-06T10:06:52;102408.09;;;7.22;100.00
30421;BME280;17218;54.070;10.012;2024-03-06T10:09:20;102402.22;;;7.26;100.00
30421;BME280;17218;54.070;10.012;2024-03-06T10:11:47;102401.81;;;7.42;100.00
30421;BME280;17218;54.070;10.012;2024-03-06T10:14:14;102402.84;;;7.73;100.00
30421;BME280;17218;54.070;10.012;2024-03-06T10:16:54;102413.06;;;7.99;100.00
30421;BME280;17218;54.070;10.012;2024-03-06T10:19:24;102410.50;;;8.28;100.00
30421;BME280;17218;54.070;10.012;2024-03-06T10:21:53;102402.63;;;8.25;100.00
30421;BME280;17218;54.070;10.012;2024-03-06T10:24:20;102412.84;;;8.20;100.00
30421;BME280;17218;54.070;10.012;2024-03-06T10:26:48;102418.09;;;8.23;100.00
30421;BME280;17218;54.070;10.012;2024-03-06T10:29:16;102416.66;;;8.33;100.00
30421;BME280;17218;54.070;10.012;2024-03-06T10:31:48;102419.84;;;8.55;100.00
30421;BME280;17218;54.070;10.012;2024-03-06T10:34:16;102428.72;;;8.64;100.00
30421;BME280;17218;54.070;10.012;2024-03-06T10:36:44;102429.16;;;8.49;100.00
30421;BME280;17218;54.070;10.012;2024-03-06T10:39:11;102425.94;;;8.56;100.00
30421;BME280;17218;54.070;10.012;2024-03-06T10:41:40;102419.66;;;8.49;100.00
30421;BME280;17218;54.070;10.012;2024-03-06T10:44:11;102427.94;;;8.66;100.00
30421;BME280;17218;54.070;10.012;2024-03-06T10:46:42;102427.81;;;8.62;100.00
30421;BME280;17218;54.070;10.012;2024-03-06T10:49:10;102425.72;;;8.50;100.00
30421;BME280;17218;54.070;10.012;2024-03-06T10:51:38;102422.59;;;8.31;100.00
30421;BME280;17218;54.070;10.012;2024-03-06T10:54:09;102427.75;;;8.31;100.00
30421;BME280;17218;54.070;10.012;2024-03-06T10:56:39;102437.31;;;8.33;100.00
30421;BME280;17218;54.070;10.012;2024-03-06T10:59:07;102429.69;;;8.38;100.00
30421;BME280;17218;54.070;10.012;2024-03-06T11:01:34;102432.59;;;8.49;100.00
30421;BME280;17218;54.070;10.012;2024-03-06T11:04:01;102429.69;;;8.67;100.00
30421;BME280;17218;54.070;10.012;2024-03-06T11:06:28;102432.88;;;8.89;100.00
30421;BME280;17218;54.070;10.012;2024-03-06T11:08:55;102435.56;;;8.94;100.00
30421;BME280;17218;54.070;10.012;2024-03-06T11:11:23;102428.34;;;9.14;100.00
30421;BME280;17218;54.070;10.012;2024-03-06T11:13:54;102427.84;;;9.28;100.00
30421;BME280;17218;54.070;10.012;2024-03-06T11:16:27;102431.53;;;8.71;100.00
30421;BME280;17218;54.070;10.012;2024-03-06T11:19:04;102437.28;;;8.93;100.00
30421;BME280;17218;54.070;10.012;2024-03-06T11:21:31;102440.75;;;8.94;100.00
30421;BME280;17218;54.070;10.012;2024-03-06T11:24:20;102441.16;;;9.10;100.00
30421;BME280;17218;54.070;10.012;2024-03-06T11:26:49;102439.25;;;9.02;100.00
30421;BME280;17218;54.070;10.012;2024-03-06T11:29:17;102445.59;;;9.15;100.00
30421;BME280;17218;54.070;10.012;2024-03-06T11:32:08;102440.09;;;9.35;100.00
30421;BME280;17218;54.070;10.012;2024-03-06T11:34:36;102447.97;;;9.41;100.00
30421;BME280;17218;54.070;10.012;2024-03-06T11:37:04;102442.97;;;9.48;100.00
30421;BME280;17218;54.070;10.012;2024-03-06T11:39:33;102446.56;;;9.54;100.00
30421;BME280;17218;54.070;10.012;2024-03-06T11:42:03;102446.53;;;9.53;100.00
30421;BME280;17218;54.070;10.012;2024-03-06T11:44:34;102458.59;;;9.17;100.00
30421;BME280;17218;54.070;10.012;2024-03-06T11:47:02;102453.34;;;9.15;100.00
30421;BME280;17218;54.070;10.012;2024-03-06T11:49:30;102457.75;;;9.18;100.00
30421;BME280;17218;54.070;10.012;2024-03-06T11:52:00;102450.75;;;9.15;100.00
30421;BME280;17218;54.070;10.012;2024-03-06T11:54:27;102455.91;;;9.14;100.00
30421;BME280;17218;54.070;10.012;2024-03-06T11:56:55;102444.44;;;9.02;100.00
30421;BME280;17218;54.070;10.012;2024-03-06T11:59:24;102444.28;;;8.98;100.00
30421;BME280;17218;54.070;10.012;2024-03-06T12:01:51;102448.50;;;8.94;100.00
30421;BME280;17218;54.070;10.012;2024-03-06T12:04:18;102443.97;;;8.85;100.00
30421;BME280;17218;54.070;10.012;2024-03-06T12:06:45;102452.75;;;8.92;100.00
30421;BME280;17218;54.070;10.012;2024-03-06T12:09:11;102452.25;;;9.05;100.00
30421;BME280;17218;54.070;10.012;2024-03-06T12:11:40;102448.16;;;9.14;100.00
30421;BME280;17218;54.070;10.012;2024-03-06T12:14:13;102463.84;;;9.20;100.00
30421;BME280;17218;54.070;10.012;2024-03-06T12:16:40;102458.00;;;9.29;100.00
30421;BME280;17218;54.070;10.012;2024-03-06T12:19:07;102461.28;;;9.22;100.00
30421;BME280;17218;54.070;10.012;2024-03-06T12:21:34;102459.47;;;9.19;100.00
30421;BME280;17218;54.070;10.012;2024-03-06T12:24:03;102466.59;;;9.26;100.00
30421;BME280;17218;54.070;10.012;2024-03-06T12:26:30;102465.28;;;9.10;100.00
30421;BME280;17218;54.070;10.012;2024-03-06T12:29:04;102463.63;;;9.12;100.00
30421;BME280;17218;54.070;10.012;2024-03-06T12:31:31;102469.97;;;9.24;100.00
30421;BME280;17218;54.070;10.012;2024-03-06T12:34:00;102471.69;;;9.25;100.00
30421;BME280;17218;54.070;10.012;2024-03-06T12:36:28;102466.72;;;8.99;100.00
30421;BME280;17218;54.070;10.012;2024-03-06T12:38:56;102457.13;;;8.94;100.00
30421;BME280;17218;54.070;10.012;2024-03-06T12:41:22;102462.75;;;9.12;100.00
30421;BME280;17218;54.070;10.012;2024-03-06T12:43:51;102459.56;;;9.22;100.00
30421;BME280;17218;54.070;10.012;2024-03-06T12:46:18;102464.75;;;9.22;100.00
30421;BME280;17218;54.070;10.012;2024-03-06T12:48:44;102455.41;;;9.27;100.00